Terminal Aerodrome Forecast
Issued by NWS Los Angeles, CA

Home | Current Version | Previous Version | Text Only | Print | Product List | Glossary On
Versions: 1 2 3 4 5 6 7 8 9 10 11 12 13 14 15 16 17 18 19
000
FTUS46 KLOX 280500
TAFSMX
TAF
KSMX 280523Z 2806/2906 VRB03KT 5SM BR BKN004
     FM280800 VRB03KT 1/2SM FG VV002
     FM281600 VRB03KT P6SM SKC
     FM282000 31012KT P6SM SKC
     FM290400 VRB03KT P6SM SKC=

USA.gov is the U.S. government's official web portal to all federal, state and local government web resources and services.